createdAt,value
2022-12-11T00:00:12.270Z,0.75
2022-12-11T00:03:00.444Z,0.20
2022-12-11T00:05:28.154Z,1.40
2022-12-11T00:07:56.250Z,0.10
2022-12-11T00:10:24.151Z,2.53
2022-12-11T00:12:52.212Z,0.00
2022-12-11T00:15:19.920Z,0.80
2022-12-11T00:17:47.845Z,2.20
2022-12-11T00:20:16.409Z,1.23
2022-12-11T00:22:44.660Z,0.13
2022-12-11T00:25:13.034Z,0.10
2022-12-11T00:27:41.211Z,5.55
2022-12-11T00:30:09.638Z,0.15
2022-12-11T00:32:37.829Z,0.10
2022-12-11T00:35:06.091Z,0.55
2022-12-11T00:37:34.178Z,0.00
2022-12-11T00:40:01.798Z,0.03
2022-12-11T00:42:33.081Z,0.10
2022-12-11T00:45:09.335Z,0.00
2022-12-11T00:47:45.073Z,0.00
2022-12-11T00:50:25.294Z,0.40
2022-12-11T00:52:58.781Z,0.08
2022-12-11T00:55:28.684Z,0.25
2022-12-11T00:57:58.466Z,0.00
2022-12-11T01:00:26.190Z,0.00
2022-12-11T01:02:54.104Z,1.27
2022-12-11T01:05:22.399Z,0.43
2022-12-11T01:07:50.408Z,0.08
2022-12-11T01:10:24.209Z,0.88
2022-12-11T01:12:59.348Z,1.77
2022-12-11T01:15:48.567Z,0.40
2022-12-11T01:20:44.074Z,0.45
2022-12-11T01:23:13.961Z,0.00
2022-12-11T01:30:42.679Z,0.15
2022-12-11T01:33:11.085Z,0.00
2022-12-11T01:35:40.520Z,0.17
2022-12-11T01:40:37.430Z,0.65
2022-12-11T01:43:05.451Z,0.90
2022-12-11T01:45:51.110Z,0.65
2022-12-11T01:48:28.576Z,0.38
2022-12-11T01:51:05.102Z,0.00
2022-12-11T01:53:42.231Z,0.00
2022-12-11T01:56:10.811Z,0.00
2022-12-11T01:58:56.519Z,0.00
2022-12-11T02:01:51.191Z,0.10
2022-12-11T02:04:20.899Z,1.65
2022-12-11T02:06:52.080Z,0.85
2022-12-11T02:09:33.978Z,1.20
2022-12-11T02:12:19.715Z,0.20
2022-12-11T02:15:25.510Z,0.17
2022-12-11T02:18:34.169Z,0.63
2022-12-11T02:21:13.452Z,0.10
2022-12-11T02:24:04.871Z,0.20
2022-12-11T02:27:03.042Z,0.00
2022-12-11T02:29:33.884Z,0.00
2022-12-11T02:32:16.925Z,0.10
2022-12-11T02:34:55.834Z,0.00
2022-12-11T02:37:28.274Z,7.97
2022-12-11T02:39:57.258Z,0.95
2022-12-11T02:42:30.882Z,0.35
2022-12-11T02:45:01.815Z,0.10
2022-12-11T02:47:32.182Z,0.00
2022-12-11T02:50:03.873Z,0.00
2022-12-11T02:52:34.567Z,0.45
2022-12-11T02:55:06.323Z,0.00
2022-12-11T02:57:37.773Z,0.00
2022-12-11T03:00:08.481Z,0.55
2022-12-11T03:02:38.899Z,0.00
2022-12-11T03:05:07.468Z,0.43
2022-12-11T03:07:40.521Z,0.10
2022-12-11T03:10:11.928Z,0.08
2022-12-11T03:12:46.983Z,0.10
2022-12-11T03:15:21.910Z,4.28
2022-12-11T03:18:13.223Z,0.43
2022-12-11T03:20:58.318Z,0.10
2022-12-11T03:23:35.079Z,0.55
2022-12-11T03:26:15.810Z,0.10
2022-12-11T03:29:00.970Z,0.40
2022-12-11T03:32:07.376Z,0.20
2022-12-11T03:35:13.721Z,1.00
2022-12-11T03:37:44.788Z,0.63
2022-12-11T03:40:18.090Z,0.40
2022-12-11T03:42:51.050Z,0.10
2022-12-11T03:45:22.364Z,0.30
2022-12-11T03:47:52.221Z,2.00
2022-12-11T03:50:23.575Z,1.05
2022-12-11T03:52:52.370Z,1.10
2022-12-11T03:55:22.987Z,0.20
2022-12-11T03:57:50.712Z,1.45
2022-12-11T04:00:21.898Z,0.20
2022-12-11T04:03:13.648Z,0.20
2022-12-11T04:05:50.349Z,2.92
2022-12-11T04:08:23.333Z,0.95
2022-12-11T04:11:10.637Z,1.45
2022-12-11T04:13:39.704Z,0.43
2022-12-11T04:16:08.639Z,0.20
2022-12-11T04:18:54.956Z,0.10
2022-12-11T04:21:41.282Z,0.40
2022-12-11T04:24:15.605Z,0.43
2022-12-11T04:26:47.933Z,0.55
2022-12-11T04:29:16.170Z,2.08
2022-12-11T04:31:45.851Z,0.25
2022-12-11T04:34:13.366Z,0.57
2022-12-11T04:36:41.191Z,0.70
2022-12-11T04:39:08.764Z,0.30
2022-12-11T04:41:37.288Z,0.80
2022-12-11T04:44:05.751Z,0.57
2022-12-11T04:46:34.431Z,0.30
2022-12-11T04:49:02.456Z,1.50
2022-12-11T04:51:30.316Z,3.60
2022-12-11T04:53:59.613Z,1.75
2022-12-11T04:56:27.542Z,0.47
2022-12-11T04:58:55.177Z,0.45
2022-12-11T05:01:23.867Z,1.38
2022-12-11T05:03:51.526Z,0.88
2022-12-11T05:06:19.549Z,0.25
2022-12-11T05:08:47.058Z,1.65
2022-12-11T05:11:16.125Z,2.15
2022-12-11T05:13:44.694Z,0.20
2022-12-11T05:16:15.773Z,0.93
2022-12-11T05:18:44.111Z,0.15
2022-12-11T05:21:15.240Z,0.90
2022-12-11T05:23:43.234Z,0.10
2022-12-11T05:26:20.073Z,0.25
2022-12-11T05:28:53.381Z,0.28
2022-12-11T05:31:25.636Z,1.27
2022-12-11T05:33:54.419Z,0.73
2022-12-11T05:36:27.921Z,0.40
2022-12-11T05:38:57.722Z,0.40
2022-12-11T05:41:37.443Z,0.13
2022-12-11T05:44:08.308Z,0.55
2022-12-11T05:46:37.303Z,1.00
2022-12-11T05:49:05.213Z,2.25
2022-12-11T05:51:36.298Z,0.45
2022-12-11T05:54:04.450Z,0.65
2022-12-11T05:56:35.102Z,1.60
2022-12-11T05:59:05.625Z,2.80
2022-12-11T06:01:43.022Z,0.60
2022-12-11T06:04:12.535Z,0.75
2022-12-11T06:06:41.319Z,0.60
2022-12-11T06:09:12.792Z,0.38
2022-12-11T06:11:59.452Z,0.55
2022-12-11T06:14:27.280Z,1.33
2022-12-11T06:16:55.383Z,0.45
2022-12-11T06:19:22.888Z,1.17
2022-12-11T06:21:50.993Z,1.48
2022-12-11T06:24:18.959Z,1.00
2022-12-11T06:27:12.688Z,1.98
2022-12-11T06:29:42.071Z,1.40
2022-12-11T06:32:10.666Z,1.17
2022-12-11T06:34:38.307Z,1.27
2022-12-11T06:37:07.347Z,1.77
2022-12-11T06:39:35.014Z,3.13
2022-12-11T06:42:02.967Z,1.30
2022-12-11T06:44:30.669Z,2.05
2022-12-11T06:46:58.569Z,1.80
2022-12-11T06:49:26.152Z,2.28
2022-12-11T06:51:54.350Z,2.88
2022-12-11T06:54:27.435Z,2.80
2022-12-11T06:56:56.139Z,2.75
2022-12-11T06:59:24.414Z,2.63
2022-12-11T07:01:52.411Z,2.67
2022-12-11T07:04:24.993Z,4.10
2022-12-11T07:06:53.601Z,2.83
2022-12-11T07:09:23.657Z,2.78
2022-12-11T07:11:53.303Z,4.28
2022-12-11T07:14:21.123Z,3.33
2022-12-11T07:16:49.015Z,3.42
2022-12-11T07:19:16.887Z,4.32
2022-12-11T07:21:44.791Z,3.83
2022-12-11T07:24:12.458Z,4.07
2022-12-11T07:26:40.368Z,4.32
2022-12-11T07:29:08.339Z,4.97
2022-12-11T07:31:37.023Z,4.57
2022-12-11T07:34:08.209Z,4.85
2022-12-11T07:36:36.146Z,5.25
2022-12-11T07:39:04.123Z,5.22
2022-12-11T07:41:32.283Z,6.20
2022-12-11T07:44:01.647Z,6.80
2022-12-11T07:46:33.400Z,7.07
2022-12-11T07:49:02.092Z,5.97
2022-12-11T07:51:36.998Z,7.60
2022-12-11T07:54:15.005Z,5.05
2022-12-11T07:56:47.434Z,4.28
2022-12-11T07:59:17.661Z,5.45
2022-12-11T08:01:45.574Z,6.50
2022-12-11T08:04:15.762Z,6.40
2022-12-11T08:06:44.062Z,7.57
2022-12-11T08:09:21.015Z,6.68
2022-12-11T08:11:51.008Z,9.88
2022-12-11T08:14:19.629Z,10.20
2022-12-11T08:16:48.793Z,10.82
2022-12-11T08:19:18.067Z,6.10
2022-12-11T08:24:16.541Z,7.40
2022-12-11T08:26:45.916Z,6.10
2022-12-11T08:29:14.094Z,8.57
2022-12-11T08:31:42.807Z,7.40
2022-12-11T08:34:13.903Z,8.75
2022-12-11T08:36:42.268Z,10.93
2022-12-11T08:39:09.899Z,8.13
2022-12-11T08:41:38.663Z,5.88
2022-12-11T08:44:16.033Z,8.88
2022-12-11T08:46:46.300Z,8.00
2022-12-11T08:49:14.470Z,5.68
2022-12-11T08:51:42.278Z,7.55
2022-12-11T08:54:10.963Z,12.02
2022-12-11T08:56:38.794Z,12.07
2022-12-11T08:59:06.895Z,6.13
2022-12-11T09:01:34.891Z,12.32
2022-12-11T09:04:02.632Z,9.75
2022-12-11T09:06:33.005Z,12.77
2022-12-11T09:09:02.682Z,12.32
2022-12-11T09:11:34.407Z,16.77
2022-12-11T09:14:07.563Z,12.07
2022-12-11T09:16:40.491Z,10.90
2022-12-11T09:19:14.159Z,12.35
2022-12-11T09:21:43.759Z,10.23
2022-12-11T09:24:13.522Z,10.93
2022-12-11T09:26:42.389Z,9.27
2022-12-11T09:29:12.071Z,9.48
2022-12-11T09:31:40.152Z,17.85
2022-12-11T09:34:11.862Z,8.38
2022-12-11T09:36:42.192Z,7.78
2022-12-11T09:39:13.690Z,9.32
2022-12-11T09:42:14.032Z,14.10
2022-12-11T09:44:54.557Z,7.60
2022-12-11T09:47:35.972Z,11.43
2022-12-11T09:50:10.478Z,9.55
2022-12-11T09:52:47.920Z,12.35
2022-12-11T09:55:24.385Z,10.85
2022-12-11T09:58:07.122Z,8.38
2022-12-11T10:01:14.598Z,8.13
2022-12-11T10:04:06.551Z,10.55
2022-12-11T10:07:04.419Z,10.40
2022-12-11T10:10:10.585Z,9.93
2022-12-11T10:13:00.839Z,6.38
2022-12-11T10:15:59.885Z,8.07
2022-12-11T10:18:29.725Z,9.20
2022-12-11T10:21:01.872Z,8.23
2022-12-11T10:23:46.688Z,9.88
2022-12-11T10:26:21.782Z,7.88
2022-12-11T10:28:49.855Z,8.95
2022-12-11T10:31:20.732Z,8.02
2022-12-11T10:34:08.482Z,7.10
2022-12-11T10:36:40.131Z,8.38
2022-12-11T10:39:21.216Z,8.32
2022-12-11T10:41:55.822Z,7.32
2022-12-11T10:44:30.431Z,8.68
2022-12-11T10:47:18.480Z,15.45
2022-12-11T10:49:58.440Z,9.68
2022-12-11T10:52:44.081Z,13.18
2022-12-11T10:55:28.480Z,10.20
2022-12-11T10:58:03.893Z,10.02
2022-12-11T11:00:40.773Z,8.98
2022-12-11T11:03:26.694Z,9.60
2022-12-11T11:06:17.361Z,12.05
2022-12-11T11:08:49.187Z,9.60
2022-12-11T11:11:36.793Z,11.73
2022-12-11T11:14:19.373Z,10.68
2022-12-11T11:16:55.123Z,13.65
2022-12-11T11:19:31.677Z,10.23
2022-12-11T11:22:22.230Z,8.35
2022-12-11T11:24:58.588Z,10.02
2022-12-11T11:27:59.486Z,12.77
2022-12-11T11:30:35.738Z,10.40
2022-12-11T11:33:22.532Z,13.40
2022-12-11T11:35:56.424Z,15.77
2022-12-11T11:38:59.888Z,12.18
2022-12-11T11:41:49.605Z,13.45
2022-12-11T11:44:27.431Z,14.60
2022-12-11T11:47:14.738Z,14.52
2022-12-11T11:49:42.269Z,14.38
2022-12-11T11:52:15.694Z,18.08
2022-12-11T11:55:11.808Z,15.27
2022-12-11T11:57:55.568Z,15.80
2022-12-11T12:00:27.577Z,20.65
2022-12-11T12:03:13.261Z,19.30
2022-12-11T12:05:50.702Z,17.67
2022-12-11T12:08:30.452Z,21.30
2022-12-11T12:11:19.012Z,15.93
2022-12-11T12:13:58.275Z,23.05
2022-12-11T12:17:05.633Z,17.65
2022-12-11T12:20:26.049Z,15.55
2022-12-11T12:23:36.955Z,21.95
2022-12-11T12:26:35.843Z,23.00
2022-12-11T12:29:24.413Z,22.27
2022-12-11T12:32:10.127Z,18.95
2022-12-11T12:35:11.458Z,20.77
2022-12-11T12:38:07.015Z,19.70
2022-12-11T12:41:05.453Z,22.05
2022-12-11T12:44:04.941Z,23.23
2022-12-11T12:46:46.574Z,23.42
2022-12-11T12:49:37.546Z,22.75
2022-12-11T12:52:13.441Z,18.52
2022-12-11T12:55:04.115Z,19.65
2022-12-11T12:57:34.211Z,26.88
2022-12-11T13:00:03.945Z,22.67
2022-12-11T13:02:33.677Z,17.40
2022-12-11T13:05:22.064Z,24.02
2022-12-11T13:08:02.602Z,22.63
2022-12-11T13:10:43.383Z,15.73
2022-12-11T13:13:34.854Z,21.98
2022-12-11T13:16:15.343Z,22.90
2022-12-11T13:21:35.393Z,23.38
2022-12-11T13:24:19.505Z,23.00
2022-12-11T13:26:49.564Z,26.02
2022-12-11T13:29:39.639Z,25.75
2022-12-11T13:32:10.184Z,31.77
2022-12-11T13:34:42.940Z,26.73
2022-12-11T13:37:41.527Z,26.25
2022-12-11T13:40:24.421Z,26.70
2022-12-11T13:43:35.508Z,27.15
2022-12-11T13:46:15.204Z,22.85
2022-12-11T13:48:54.410Z,27.67
2022-12-11T13:51:26.039Z,29.08
2022-12-11T13:54:18.931Z,32.70
2022-12-11T13:57:09.372Z,30.50
2022-12-11T13:59:42.988Z,31.55
2022-12-11T14:02:34.180Z,24.48
2022-12-11T14:05:10.629Z,31.58
2022-12-11T14:07:49.868Z,25.52
2022-12-11T14:10:24.161Z,26.40
2022-12-11T14:13:22.222Z,24.33
2022-12-11T14:15:50.598Z,26.80
2022-12-11T14:18:28.724Z,30.00
2022-12-11T14:21:06.233Z,29.10
2022-12-11T14:23:37.545Z,31.58
2022-12-11T14:26:20.182Z,30.58
2022-12-11T14:28:48.504Z,30.63
2022-12-11T14:31:28.533Z,23.38
2022-12-11T14:34:13.943Z,25.30
2022-12-11T14:36:43.984Z,25.40
2022-12-11T14:39:39.622Z,26.15
2022-12-11T14:42:22.093Z,24.55
2022-12-11T14:45:19.208Z,25.88
2022-12-11T14:47:47.404Z,28.90
2022-12-11T14:50:47.928Z,29.33
2022-12-11T14:53:25.728Z,26.20
2022-12-11T14:55:55.830Z,27.80
2022-12-11T14:58:27.204Z,31.52
2022-12-11T15:01:06.980Z,27.08
2022-12-11T15:03:39.549Z,19.05
2022-12-11T15:06:26.693Z,29.45
2022-12-11T15:08:55.531Z,19.27
2022-12-11T15:11:25.310Z,24.88
2022-12-11T15:13:58.130Z,30.38
2022-12-11T15:16:31.358Z,29.23
2022-12-11T15:18:59.778Z,27.35
2022-12-11T15:21:36.136Z,23.27
2022-12-11T15:24:07.150Z,28.50
2022-12-11T15:26:48.019Z,29.40
2022-12-11T15:29:40.230Z,25.27
2022-12-11T15:32:19.605Z,25.77
2022-12-11T15:34:56.113Z,23.40
2022-12-11T15:37:26.457Z,25.42
2022-12-11T15:39:57.473Z,21.92
2022-12-11T15:42:41.671Z,21.85
2022-12-11T15:45:21.188Z,21.00
2022-12-11T15:47:50.461Z,23.45
2022-12-11T15:50:28.664Z,26.25
2022-12-11T15:52:57.620Z,26.75
2022-12-11T15:55:27.594Z,24.10
2022-12-11T15:58:06.032Z,29.30
2022-12-11T16:00:34.089Z,24.23
2022-12-11T16:03:02.068Z,27.83
2022-12-11T16:05:30.332Z,25.55
2022-12-11T16:08:00.649Z,25.77
2022-12-11T16:10:28.957Z,25.05
2022-12-11T16:12:59.602Z,28.85
2022-12-11T16:15:29.564Z,26.33
2022-12-11T16:18:06.769Z,23.13
2022-12-11T16:20:36.961Z,27.00
2022-12-11T16:23:05.440Z,24.27
2022-12-11T16:25:34.470Z,24.52
2022-12-11T16:28:02.542Z,24.37
2022-12-11T16:30:30.447Z,27.45
2022-12-11T16:32:58.091Z,24.88
2022-12-11T16:35:26.106Z,29.65
2022-12-11T16:37:55.295Z,26.65
2022-12-11T16:40:24.222Z,26.88
2022-12-11T16:42:52.834Z,26.48
2022-12-11T16:45:25.300Z,26.20
2022-12-11T16:47:53.422Z,25.40
2022-12-11T16:50:21.503Z,27.88
2022-12-11T16:52:49.269Z,26.00
2022-12-11T16:55:21.183Z,21.45
2022-12-11T16:57:49.202Z,23.42
2022-12-11T17:00:17.755Z,28.52
2022-12-11T17:02:45.474Z,28.70
2022-12-11T17:05:13.946Z,31.00
2022-12-11T17:07:42.107Z,35.23
2022-12-11T17:10:10.991Z,25.33
2022-12-11T17:12:39.092Z,26.63
2022-12-11T17:15:07.841Z,25.13
2022-12-11T17:17:35.597Z,27.75
2022-12-11T17:20:03.914Z,25.60
2022-12-11T17:22:31.542Z,29.63
2022-12-11T17:24:59.531Z,24.83
2022-12-11T17:27:27.201Z,21.90
2022-12-11T17:29:55.144Z,23.27
2022-12-11T17:32:23.011Z,24.17
2022-12-11T17:34:54.094Z,28.48
2022-12-11T17:37:21.896Z,24.48
2022-12-11T17:39:49.908Z,30.25
2022-12-11T17:42:17.565Z,28.70
2022-12-11T17:44:45.716Z,24.20
2022-12-11T17:47:13.384Z,23.95
2022-12-11T17:49:41.666Z,27.98
2022-12-11T17:52:09.379Z,29.60
2022-12-11T17:54:39.324Z,23.27
2022-12-11T17:57:07.344Z,24.20
2022-12-11T17:59:35.328Z,23.88
2022-12-11T18:02:03.033Z,25.25
2022-12-11T18:04:30.963Z,25.15
2022-12-11T18:06:58.711Z,25.40
2022-12-11T18:09:26.629Z,21.77
2022-12-11T18:11:54.188Z,25.58
2022-12-11T18:14:22.113Z,23.83
2022-12-11T18:16:49.783Z,21.77
2022-12-11T18:19:17.660Z,25.90
2022-12-11T18:21:46.019Z,26.33
2022-12-11T18:24:14.240Z,28.73
2022-12-11T18:26:43.063Z,30.85
2022-12-11T18:29:11.664Z,22.35
2022-12-11T18:31:42.705Z,21.50
2022-12-11T18:34:11.779Z,18.15
2022-12-11T18:36:40.847Z,21.33
2022-12-11T18:41:36.459Z,25.80
2022-12-11T18:44:09.478Z,24.25
2022-12-11T18:46:39.920Z,22.17
2022-12-11T18:49:08.771Z,25.27
2022-12-11T18:51:37.322Z,30.50
2022-12-11T18:54:05.325Z,23.15
2022-12-11T18:56:32.911Z,23.75
2022-12-11T18:59:01.627Z,23.00
2022-12-11T19:04:06.655Z,23.80
2022-12-11T19:06:39.259Z,25.27
2022-12-11T19:09:09.039Z,24.50
2022-12-11T19:11:40.947Z,24.65
2022-12-11T19:14:10.268Z,23.88
2022-12-11T19:16:43.081Z,24.92
2022-12-11T19:19:17.989Z,27.83
2022-12-11T19:21:47.249Z,22.63
2022-12-11T19:26:51.484Z,20.08
2022-12-11T19:29:34.523Z,19.27
2022-12-11T19:32:03.593Z,22.63
2022-12-11T19:34:32.296Z,21.25
2022-12-11T19:37:00.056Z,20.00
2022-12-11T19:39:28.139Z,20.40
2022-12-11T19:41:55.593Z,19.10
2022-12-11T19:44:23.547Z,21.92
2022-12-11T19:47:19.132Z,24.35
2022-12-11T19:49:52.204Z,27.48
2022-12-11T19:52:19.904Z,24.92
2022-12-11T19:54:47.803Z,20.35
2022-12-11T19:57:16.114Z,23.40
2022-12-11T19:59:44.022Z,19.13
2022-12-11T20:02:12.395Z,19.88
2022-12-11T20:04:40.290Z,20.17
2022-12-11T20:07:13.191Z,22.65
2022-12-11T20:09:46.272Z,29.25
2022-12-11T20:12:22.552Z,24.20
2022-12-11T20:14:56.782Z,24.52
2022-12-11T20:17:34.267Z,22.52
2022-12-11T20:20:08.694Z,24.48
2022-12-11T20:22:42.945Z,23.00
2022-12-11T20:25:18.361Z,26.00
2022-12-11T20:27:59.901Z,27.45
2022-12-11T20:30:32.801Z,23.88
2022-12-11T20:33:05.806Z,24.92
2022-12-11T20:35:43.841Z,29.63
2022-12-11T20:38:17.403Z,21.65
2022-12-11T20:40:51.662Z,23.73
2022-12-11T20:44:07.303Z,29.33
2022-12-11T20:46:42.301Z,27.42
2022-12-11T20:49:15.707Z,25.23
2022-12-11T20:51:45.980Z,24.35
2022-12-11T20:54:20.790Z,25.73
2022-12-11T20:56:55.569Z,26.83
2022-12-11T20:59:28.654Z,23.13
2022-12-11T21:02:02.376Z,25.25
2022-12-11T21:04:34.558Z,25.17
2022-12-11T21:07:11.008Z,23.33
2022-12-11T21:09:46.208Z,25.27
2022-12-11T21:12:29.823Z,21.52
2022-12-11T21:15:07.970Z,22.88
2022-12-11T21:17:42.715Z,22.30
2022-12-11T21:20:17.421Z,23.33
2022-12-11T21:22:50.356Z,20.45
2022-12-11T21:25:27.792Z,26.88
2022-12-11T21:28:00.840Z,23.05
2022-12-11T21:30:35.131Z,24.00
2022-12-11T21:33:10.699Z,25.70
2022-12-11T21:35:45.583Z,30.30
2022-12-11T21:38:17.499Z,30.05
2022-12-11T21:40:45.166Z,22.75
2022-12-11T21:43:13.078Z,26.13
2022-12-11T21:48:30.310Z,18.67
2022-12-11T21:51:14.632Z,17.70
2022-12-11T21:53:43.074Z,17.65
2022-12-11T21:56:15.178Z,17.40
2022-12-11T21:58:45.280Z,14.23
2022-12-11T22:01:26.546Z,20.67
2022-12-11T22:03:54.839Z,19.33
2022-12-11T22:06:22.630Z,18.00
2022-12-11T22:08:51.376Z,16.38
2022-12-11T22:11:28.206Z,18.92
2022-12-11T22:13:56.795Z,14.07
2022-12-11T22:16:24.952Z,17.33
2022-12-11T22:18:54.743Z,14.60
2022-12-11T22:21:22.506Z,23.53
2022-12-11T22:23:50.656Z,21.05
2022-12-11T22:26:26.674Z,20.25
2022-12-11T22:28:55.799Z,19.15
2022-12-11T22:31:26.386Z,19.75
2022-12-11T22:33:55.502Z,21.85
2022-12-11T22:36:25.392Z,20.48
2022-12-11T22:38:54.132Z,22.20
2022-12-11T22:41:31.062Z,17.63
2022-12-11T22:44:00.015Z,19.13
2022-12-11T22:46:30.916Z,18.63
2022-12-11T22:48:59.311Z,18.27
2022-12-11T22:51:26.985Z,18.08
2022-12-11T22:53:55.088Z,17.13
2022-12-11T22:56:22.729Z,16.98
2022-12-11T22:58:51.245Z,15.52
2022-12-11T23:01:23.116Z,16.65
2022-12-11T23:03:51.367Z,17.13
2022-12-11T23:06:22.897Z,17.75
2022-12-11T23:08:52.243Z,16.85
2022-12-11T23:11:27.652Z,18.92
2022-12-11T23:13:56.329Z,17.42
2022-12-11T23:16:25.887Z,17.33
2022-12-11T23:18:56.144Z,24.63
2022-12-11T23:21:26.119Z,21.15
2022-12-11T23:23:55.212Z,22.10
2022-12-11T23:26:23.767Z,18.13
2022-12-11T23:28:51.749Z,19.33
2022-12-11T23:31:19.606Z,20.52
2022-12-11T23:33:47.584Z,18.33
2022-12-11T23:36:15.281Z,23.85
2022-12-11T23:38:43.610Z,18.73
2022-12-11T23:41:14.313Z,20.33
2022-12-11T23:43:43.193Z,24.83
2022-12-11T23:46:19.926Z,18.05
2022-12-11T23:48:48.819Z,22.60
2022-12-11T23:51:19.175Z,23.93
2022-12-11T23:53:47.634Z,20.73
2022-12-11T23:56:20.425Z,20.48
2022-12-11T23:58:48.617Z,18.25
